Time;durP1;ratioP1;P1;durP2;ratioP2;P2;SDS_P1;SDS_P2;PMS_P1;PMS_P2;Temp;Humidity;BMP_temperature;BMP_pressure;BME280_temperature;BME280_humidity;BME280_pressure;Samples;Min_cycle;Max_cycle;Signal;HPM_P1;HPM_P2
2021/10/07 04:43:27;;;;;;;7.12;3.30;;;;;;;2.19;60.84;101973.02;1733150;80;21060;-37
2021/10/07 04:45:54;;;;;;;7.37;3.17;;;;;;;2.26;60.82;101976.86;1725198;82;21611;-37
2021/10/07 04:48:21;;;;;;;8.75;3.22;;;;;;;2.30;60.78;101975.84;1700010;83;21573;-37
2021/10/07 04:50:48;;;;;;;6.97;3.40;;;;;;;2.35;60.63;101965.39;1683576;83;21023;-37
2021/10/07 04:53:15;;;;;;;6.33;3.02;;;;;;;2.42;60.57;101970.52;1712947;83;21006;-37
2021/10/07 04:55:42;;;;;;;9.28;3.25;;;;;;;2.52;60.58;101982.30;1725898;82;21007;-37
2021/10/07 04:58:09;;;;;;;10.82;3.37;;;;;;;2.57;60.47;101976.61;1722145;82;21079;-33
2021/10/07 05:00:36;;;;;;;7.45;3.05;;;;;;;2.64;60.46;101978.74;1717331;82;21089;-37
2021/10/07 05:03:03;;;;;;;7.25;2.98;;;;;;;2.71;60.52;101976.11;1720625;82;21082;-37
2021/10/07 05:05:30;;;;;;;6.65;3.08;;;;;;;2.78;60.23;101969.59;1713356;83;21070;-33
2021/10/07 05:07:58;;;;;;;8.95;2.67;;;;;;;2.86;60.17;101975.72;1720238;83;21495;-32
2021/10/07 05:10:26;;;;;;;6.20;2.83;;;;;;;2.94;60.12;101977.44;1717650;83;21120;-37
2021/10/07 05:12:53;;;;;;;7.62;2.95;;;;;;;3.04;59.96;101985.33;1716094;81;21026;-37
2021/10/07 05:15:21;;;;;;;8.68;3.20;;;;;;;3.11;59.69;101980.59;1715390;82;21060;-32
2021/10/07 05:17:49;;;;;;;6.72;3.02;;;;;;;3.16;59.49;101978.27;1676384;83;21484;-32
2021/10/07 05:20:16;;;;;;;7.05;2.90;;;;;;;3.24;59.02;101982.16;1716214;82;21001;-33
2021/10/07 05:22:56;;;;;;;7.85;3.08;;;;;;;3.30;58.87;101981.21;1716118;82;21070;-36
2021/10/07 05:26:38;;;;;;;11.55;2.98;;;;;;;3.38;58.72;101979.97;1718295;82;21461;-31
2021/10/07 05:34:30;;;;;;;3.40;2.35;;;;;;;3.61;57.82;101983.82;1719523;81;21130;-32
2021/10/07 05:38:15;;;;;;;7.62;2.75;;;;;;;3.77;57.38;101979.45;1714186;82;21584;-32
2021/10/07 05:42:00;;;;;;;9.40;2.90;;;;;;;3.91;57.10;101978.52;1713465;82;21886;-37
2021/10/07 05:45:10;;;;;;;13.15;3.40;;;;;;;4.09;56.61;101976.02;1713115;82;21577;-33
2021/10/07 05:47:41;;;;;;;9.28;3.10;;;;;;;4.24;55.91;101979.02;1714897;81;21500;-33
2021/10/07 05:50:09;;;;;;;8.18;3.17;;;;;;;4.35;55.39;101983.84;1714909;82;21457;-33
2021/10/07 05:52:37;;;;;;;11.93;3.50;;;;;;;4.44;54.64;101982.63;1715027;82;21004;-37
2021/10/07 05:55:05;;;;;;;9.00;3.42;;;;;;;4.53;53.86;101984.81;1715760;82;21584;-38
2021/10/07 05:57:32;;;;;;;13.32;4.20;;;;;;;4.62;53.77;101981.78;1716915;82;21017;-38
2021/10/07 06:00:00;;;;;;;13.15;3.85;;;;;;;4.71;53.50;101975.78;1716745;82;21077;-37
2021/10/07 06:02:28;;;;;;;7.15;3.90;;;;;;;4.79;53.26;101979.22;1717610;82;21010;-36
2021/10/07 06:04:55;;;;;;;7.65;3.70;;;;;;;4.86;52.96;101972.63;1717359;82;21095;-31
2021/10/07 06:07:22;;;;;;;10.10;4.00;;;;;;;4.93;52.63;101978.63;1718442;82;20998;-32
2021/10/07 06:09:49;;;;;;;7.95;4.33;;;;;;;4.99;52.45;101984.12;1715548;82;21000;-32
2021/10/07 06:12:16;;;;;;;18.27;4.65;;;;;;;5.04;52.26;101984.31;1715244;83;21031;-36
2021/10/07 06:14:43;;;;;;;9.45;4.10;;;;;;;5.07;52.25;101989.27;1714854;82;21086;-35
2021/10/07 06:17:13;;;;;;;14.90;4.58;;;;;;;5.12;52.19;101993.39;1717981;82;21077;-32
2021/10/07 06:19:43;;;;;;;5.65;3.65;;;;;;;5.18;52.24;101993.69;1717374;82;21703;-32
2021/10/07 06:22:12;;;;;;;9.13;3.75;;;;;;;5.27;52.39;101995.82;1718542;81;21034;-32
2021/10/07 06:24:40;;;;;;;8.20;3.85;;;;;;;5.38;52.32;101992.45;1721142;79;21141;-32
2021/10/07 06:27:07;;;;;;;18.25;5.45;;;;;;;5.50;52.37;101995.63;1665549;84;21518;-37
2021/10/07 06:29:34;;;;;;;12.13;4.33;;;;;;;5.61;51.78;101991.83;1662233;84;21656;-37
2021/10/07 06:32:02;;;;;;;14.70;3.87;;;;;;;5.71;51.65;101989.27;1666562;84;20955;-37
2021/10/07 06:34:30;;;;;;;17.07;3.95;;;;;;;5.80;51.55;101991.00;1638851;85;21572;-37
2021/10/07 06:37:01;;;;;;;8.83;3.25;;;;;;;5.88;51.37;101993.11;1646726;85;21648;-32
2021/10/07 06:39:30;;;;;;;7.70;3.47;;;;;;;5.98;51.17;101990.98;1630417;85;21047;-32
2021/10/07 06:42:00;;;;;;;8.63;3.80;;;;;;;6.05;50.97;101995.63;1647005;85;20998;-34
2021/10/07 06:44:28;;;;;;;5.72;3.20;;;;;;;6.10;50.62;101993.72;1646737;85;21639;-33
2021/10/07 06:46:55;;;;;;;16.90;3.60;;;;;;;6.19;50.44;101992.34;1649657;85;21498;-32
2021/10/07 06:49:22;;;;;;;8.58;3.62;;;;;;;6.24;50.43;101988.24;1651748;85;22041;-37
2021/10/07 06:51:49;;;;;;;6.00;3.92;;;;;;;6.31;50.17;101997.67;1651801;85;21074;-33
2021/10/07 06:54:17;;;;;;;13.15;4.95;;;;;;;6.36;50.10;101999.17;1647385;85;21039;-32
2021/10/07 06:56:44;;;;;;;13.50;5.85;;;;;;;6.45;50.33;101989.61;1651319;85;21612;-32
2021/10/07 06:59:12;;;;;;;7.50;3.52;;;;;;;6.55;50.08;101994.36;1642743;85;21986;-32
2021/10/07 07:01:58;;;;;;;10.28;4.17;;;;;;;6.64;50.04;101993.47;1646755;85;21579;-32
2021/10/07 07:04:29;;;;;;;9.70;3.27;;;;;;;6.75;50.12;101990.91;1533508;91;21116;-37
2021/10/07 07:06:56;;;;;;;13.45;3.70;;;;;;;6.87;49.63;102000.53;1580224;89;21054;-37
2021/10/07 07:09:23;;;;;;;12.10;3.83;;;;;;;6.93;49.07;101995.58;1581865;89;21140;-32
2021/10/07 07:12:25;;;;;;;10.35;3.50;;;;;;;6.96;49.10;101999.13;1546166;90;21441;-32
2021/10/07 07:14:58;;;;;;;12.30;4.40;;;;;;;7.01;49.43;102004.11;1570488;90;21104;-33
2021/10/07 07:17:26;;;;;;;14.90;3.67;;;;;;;7.10;48.84;101984.56;1580848;89;21111;-32
2021/10/07 07:19:54;;;;;;;9.60;3.45;;;;;;;7.16;48.88;101987.42;1587037;88;21052;-32
2021/10/07 07:22:21;;;;;;;8.93;3.30;;;;;;;7.26;48.79;101990.41;1620034;87;21521;-32
2021/10/07 07:24:49;;;;;;;5.90;2.77;;;;;;;7.35;48.24;101981.64;1622773;86;21129;-37
2021/10/07 07:27:16;;;;;;;10.93;3.25;;;;;;;7.43;48.36;101991.97;1618253;86;21053;-37
2021/10/07 07:29:44;;;;;;;8.13;3.42;;;;;;;7.50;48.04;101979.66;1617450;88;21065;-33
2021/10/07 07:32:11;;;;;;;8.08;2.95;;;;;;;7.56;47.83;101981.61;1598428;88;21093;-31
2021/10/07 07:34:47;;;;;;;13.05;3.33;;;;;;;7.61;48.06;101979.66;1614246;88;21642;-32
2021/10/07 07:37:17;;;;;;;7.33;3.67;;;;;;;7.68;47.66;101973.84;1617940;87;21099;-31
2021/10/07 07:39:44;;;;;;;8.73;4.17;;;;;;;7.78;47.35;101980.31;1614900;87;21030;-36
2021/10/07 07:42:14;;;;;;;9.45;3.77;;;;;;;7.83;47.37;101972.25;1707022;83;21561;-31
2021/10/07 07:44:42;;;;;;;13.93;4.62;;;;;;;7.90;47.12;101972.06;1714293;83;21120;-36
2021/10/07 07:47:09;;;;;;;13.40;3.95;;;;;;;8.00;47.81;101972.47;1709497;83;20990;-31
2021/10/07 07:49:38;;;;;;;15.20;3.67;;;;;;;8.12;47.47;101969.42;1709677;83;21576;-36
2021/10/07 07:52:05;;;;;;;10.80;4.85;;;;;;;8.24;47.38;101962.46;1667457;85;21565;-31
2021/10/07 07:54:32;;;;;;;22.15;5.30;;;;;;;8.38;47.08;101959.06;1676382;84;21613;-36
2021/10/07 07:57:03;;;;;;;13.15;5.22;;;;;;;8.50;46.95;101962.09;1671472;85;21065;-37
2021/10/07 07:59:31;;;;;;;21.77;5.97;;;;;;;8.64;46.95;101956.03;1670246;84;21692;-32
2021/10/07 08:01:59;;;;;;;23.62;7.35;;;;;;;8.75;46.08;101954.67;1673329;84;21895;-32
2021/10/07 08:04:29;;;;;;;20.08;7.70;;;;;;;8.81;45.92;101949.66;1654499;86;21164;-33
2021/10/07 08:06:59;;;;;;;23.22;8.08;;;;;;;8.87;45.46;101951.20;1658491;86;21485;-37
2021/10/07 08:09:26;;;;;;;26.10;9.00;;;;;;;8.93;45.39;101943.56;1659432;84;21142;-36
2021/10/07 08:11:55;;;;;;;29.67;9.23;;;;;;;9.00;44.42;101946.84;1655901;85;21604;-32
2021/10/07 08:14:24;;;;;;;17.62;9.00;;;;;;;9.09;44.01;101947.54;1650252;86;21065;-32
2021/10/07 08:16:51;;;;;;;24.07;8.75;;;;;;;9.18;44.04;101945.66;1656400;86;21058;-32
2021/10/07 08:19:18;;;;;;;29.15;9.60;;;;;;;9.28;43.78;101943.39;1657656;86;21047;-38
2021/10/07 08:21:45;;;;;;;24.77;9.28;;;;;;;9.37;43.27;101942.77;1656965;86;21024;-32
2021/10/07 08:24:16;;;;;;;23.92;10.48;;;;;;;9.45;42.66;101938.69;1653477;86;21263;-32
2021/10/07 08:26:42;;;;;;;23.18;10.38;;;;;;;9.51;41.90;101932.77;1639649;86;21035;-37
2021/10/07 08:29:09;;;;;;;19.65;9.88;;;;;;;9.55;42.18;101932.88;1629104;85;21059;-31
2021/10/07 08:31:36;;;;;;;20.45;9.58;;;;;;;9.62;42.55;101936.55;1651475;84;21564;-36
2021/10/07 08:34:03;;;;;;;29.15;10.63;;;;;;;9.72;41.65;101929.46;1655284;85;21086;-32
2021/10/07 08:36:32;;;;;;;28.73;11.48;;;;;;;9.80;40.73;101935.81;1689504;82;21517;-32
2021/10/07 08:38:59;;;;;;;19.98;10.03;;;;;;;9.88;40.10;101929.92;1691456;83;21052;-37
2021/10/07 08:41:27;;;;;;;32.60;11.33;;;;;;;9.94;39.94;101928.36;1693099;83;21535;-36
2021/10/07 08:43:56;;;;;;;19.05;11.20;;;;;;;9.97;39.31;101921.01;1689595;82;21065;-33
2021/10/07 08:46:24;;;;;;;25.27;11.15;;;;;;;9.99;39.77;101926.77;1654960;84;21576;-34
2021/10/07 08:48:51;;;;;;;18.90;10.05;;;;;;;10.04;39.34;101919.05;1663223;84;21132;-38
2021/10/07 08:51:18;;;;;;;24.85;11.48;;;;;;;10.05;39.37;101919.09;1657790;84;20986;-36
2021/10/07 08:53:48;;;;;;;19.92;11.57;;;;;;;10.06;39.33;101917.36;1660649;84;21082;-32
2021/10/07 08:56:20;;;;;;;19.92;10.45;;;;;;;10.07;39.17;101920.00;1690026;83;21169;-37
2021/10/07 08:58:49;;;;;;;21.60;10.38;;;;;;;10.14;39.61;101913.20;1693217;83;21066;-33
2021/10/07 09:01:44;;;;;;;22.87;9.85;;;;;;;10.23;40.20;101917.82;1659816;84;21004;-37
2021/10/07 09:04:25;;;;;;;18.62;10.98;;;;;;;10.32;39.71;101919.00;1692893;82;21126;-32
2021/10/07 09:07:02;;;;;;;24.00;10.48;;;;;;;10.34;38.85;101913.80;1690999;83;21033;-31
2021/10/07 09:09:29;;;;;;;18.45;10.48;;;;;;;10.39;39.16;101913.50;1650475;84;21521;-35
2021/10/07 09:11:59;;;;;;;22.70;10.60;;;;;;;10.49;38.24;101913.30;1693356;83;21046;-37
2021/10/07 09:14:28;;;;;;;23.20;10.95;;;;;;;10.57;38.01;101909.16;1655168;84;21129;-32
2021/10/07 09:16:57;;;;;;;25.75;11.20;;;;;;;10.67;38.23;101905.94;1685210;83;20970;-32
2021/10/07 09:19:45;;;;;;;21.40;10.50;;;;;;;10.86;36.34;101896.80;1627515;83;21152;-33
2021/10/07 09:22:30;;;;;;;21.62;9.15;;;;;;;10.86;36.34;101896.80;1657431;83;21643;-32
2021/10/07 09:25:00;;;;;;;18.87;9.15;;;;;;;10.96;35.27;101900.11;1669406;83;21586;-34
2021/10/07 09:27:29;;;;;;;23.42;9.88;;;;;;;11.01;34.62;101894.95;1674651;83;21066;-33
2021/10/07 09:30:09;;;;;;;24.43;8.68;;;;;;;11.05;34.86;101898.11;1678301;84;21081;-35
2021/10/07 09:32:44;;;;;;;18.62;8.75;;;;;;;11.09;34.77;101902.16;1676872;85;20974;-34
2021/10/07 09:35:13;;;;;;;13.22;8.65;;;;;;;11.13;34.43;101899.16;1675734;84;21955;-34
2021/10/07 09:37:48;;;;;;;25.70;7.65;;;;;;;11.16;34.76;101900.55;1685894;83;21336;-34
2021/10/07 09:40:21;;;;;;;15.25;7.87;;;;;;;11.16;34.24;101888.34;1688158;84;21110;-39
2021/10/07 09:42:54;;;;;;;24.75;7.17;;;;;;;11.17;34.50;101898.39;1711189;82;21549;-37
2021/10/07 09:45:33;;;;;;;9.15;5.37;;;;;;;11.20;33.41;101903.72;1718382;82;21005;-33
2021/10/07 09:48:02;;;;;;;18.65;5.62;;;;;;;11.19;32.96;101893.66;1715803;82;20957;-33
2021/10/07 09:50:37;;;;;;;12.95;5.47;;;;;;;11.25;32.44;101903.80;1716545;82;21072;-38
2021/10/07 09:53:14;;;;;;;14.05;4.40;;;;;;;11.36;32.66;101890.08;1719600;82;20970;-38
2021/10/07 09:55:49;;;;;;;17.55;5.15;;;;;;;11.41;31.86;101896.31;1717421;82;21628;-38
2021/10/07 09:58:23;;;;;;;9.08;4.17;;;;;;;11.40;31.42;101904.15;1717623;82;21036;-38
2021/10/07 10:00:54;;;;;;;21.65;4.85;;;;;;;11.37;31.46;101893.62;1715244;82;21024;-37
2021/10/07 10:03:22;;;;;;;14.68;4.83;;;;;;;11.47;31.33;101892.94;1717239;82;21156;-36
2021/10/07 10:05:50;;;;;;;24.30;5.08;;;;;;;11.68;31.39;101886.84;1712714;82;21498;-32
2021/10/07 10:08:18;;;;;;;9.30;4.28;;;;;;;11.96;30.69;101881.77;1715570;81;21512;-36
2021/10/07 10:10:46;;;;;;;12.78;5.00;;;;;;;12.34;30.13;101883.33;1713616;82;21021;-38
2021/10/07 10:13:14;;;;;;;12.37;4.75;;;;;;;12.79;29.34;101881.91;1679398;83;21025;-37
2021/10/07 10:15:43;;;;;;;9.35;4.08;;;;;;;13.39;28.38;101879.75;1682994;83;21081;-32
2021/10/07 10:18:13;;;;;;;10.08;4.22;;;;;;;14.02;27.40;101866.05;1684338;83;21521;-33
2021/10/07 10:20:51;;;;;;;10.80;4.45;;;;;;;14.60;26.89;101864.89;1682292;83;21593;-32
2021/10/07 10:23:21;;;;;;;14.50;4.10;;;;;;;15.21;26.17;101870.16;1681181;83;21006;-33
2021/10/07 10:26:07;;;;;;;9.00;4.03;;;;;;;15.64;24.97;101862.04;1680827;83;21065;-32
2021/10/07 10:28:49;;;;;;;11.10;3.95;;;;;;;15.99;24.85;101863.91;1682281;83;21068;-37
2021/10/07 10:31:33;;;;;;;15.83;4.05;;;;;;;16.42;24.10;101856.95;1680968;83;21492;-32
2021/10/07 10:34:17;;;;;;;11.28;4.15;;;;;;;16.79;23.46;101847.72;1659859;85;21524;-33
2021/10/07 10:36:58;;;;;;;11.97;4.37;;;;;;;17.16;22.55;101842.81;1658427;85;20982;-33
2021/10/07 10:39:34;;;;;;;12.85;4.17;;;;;;;17.46;22.33;101843.15;1683040;83;21061;-32
2021/10/07 10:42:05;;;;;;;8.08;4.37;;;;;;;17.75;21.93;101850.98;1681886;83;21307;-36
2021/10/07 10:44:37;;;;;;;9.90;3.95;;;;;;;17.97;21.58;101849.08;1681689;83;21066;-37
2021/10/07 10:47:12;;;;;;;11.95;4.05;;;;;;;18.22;21.01;101851.14;1686410;83;20994;-37
2021/10/07 10:49:51;;;;;;;17.12;4.78;;;;;;;18.34;21.29;101847.08;1677642;83;21049;-37
2021/10/07 10:52:42;;;;;;;15.93;4.30;;;;;;;18.54;20.01;101848.67;1686903;83;20994;-37
2021/10/07 10:55:17;;;;;;;20.08;4.30;;;;;;;18.65;20.83;101841.52;1655715;85;21077;-37
2021/10/07 10:57:51;;;;;;;12.18;4.40;;;;;;;19.00;20.40;101843.85;1660438;85;21553;-37
2021/10/07 11:00:35;;;;;;;16.97;4.65;;;;;;;19.20;19.30;101848.97;1669415;83;21585;-32
2021/10/07 11:03:15;;;;;;;11.20;4.03;;;;;;;19.07;19.59;101842.02;1654209;85;21041;-32
2021/10/07 11:06:05;;;;;;;8.25;4.78;;;;;;;19.03;18.85;101846.94;1659696;85;21045;-37
2021/10/07 11:08:47;;;;;;;12.43;4.00;;;;;;;18.87;18.17;101838.25;1660998;85;21137;-37
2021/10/07 11:11:25;;;;;;;13.95;3.95;;;;;;;18.84;18.75;101835.62;1654649;85;20991;-32
2021/10/07 11:13:53;;;;;;;6.15;3.67;;;;;;;19.11;19.24;101838.44;1673791;84;21077;-33
2021/10/07 11:16:21;;;;;;;13.93;3.65;;;;;;;19.40;18.40;101837.66;1676907;85;21017;-38
2021/10/07 11:18:49;;;;;;;17.85;3.37;;;;;;;19.42;18.00;101837.63;1677943;84;21409;-33
2021/10/07 11:21:20;;;;;;;13.18;3.40;;;;;;;19.23;18.49;101840.95;1670964;85;21567;-38
2021/10/07 11:23:52;;;;;;;10.38;3.33;;;;;;;19.13;18.67;101836.22;1680076;84;21058;-38
2021/10/07 11:26:21;;;;;;;15.15;3.25;;;;;;;18.87;18.76;101836.92;1674368;85;21050;-37
2021/10/07 11:28:50;;;;;;;6.60;2.75;;;;;;;18.41;19.18;101821.86;1673431;85;21585;-39
2021/10/07 11:31:21;;;;;;;8.40;3.00;;;;;;;17.97;20.07;101830.98;1682806;83;21491;-37
2021/10/07 11:33:52;;;;;;;17.17;2.90;;;;;;;17.55;20.54;101837.80;1715094;82;21048;-38
2021/10/07 11:36:25;;;;;;;15.95;2.90;;;;;;;17.16;21.09;101831.33;1717208;82;21635;-32
2021/10/07 11:38:53;;;;;;;11.53;3.05;;;;;;;16.67;21.14;101830.08;1711822;82;21556;-38
2021/10/07 11:41:22;;;;;;;9.50;2.10;;;;;;;16.32;21.99;101825.69;1683881;83;20972;-34
2021/10/07 11:43:49;;;;;;;17.73;2.30;;;;;;;16.14;21.76;101830.51;1713292;82;21060;-34
2021/10/07 11:46:18;;;;;;;5.12;1.90;;;;;;;15.92;21.90;101824.75;1715118;82;21018;-39
2021/10/07 11:48:52;;;;;;;11.90;2.15;;;;;;;15.78;22.20;101826.05;1716832;82;21017;-33
2021/10/07 11:51:22;;;;;;;17.67;2.50;;;;;;;15.69;22.44;101824.69;1715293;82;21357;-37
2021/10/07 11:53:51;;;;;;;26.70;3.30;;;;;;;15.55;22.19;101826.37;1719601;82;21092;-39
2021/10/07 11:56:23;;;;;;;20.00;3.10;;;;;;;15.24;22.85;101819.63;1725270;82;21035;-32
2021/10/07 11:58:57;;;;;;;21.33;2.77;;;;;;;14.97;23.23;101826.09;1718337;82;21029;-32
2021/10/07 12:01:30;;;;;;;19.40;2.77;;;;;;;14.80;23.39;101828.17;1717040;82;20981;-32
2021/10/07 12:04:02;;;;;;;9.85;2.27;;;;;;;14.73;23.56;101818.91;1698679;83;21700;-32
2021/10/07 12:06:34;;;;;;;17.07;3.37;;;;;;;14.71;24.19;101818.88;1717244;82;21013;-36
2021/10/07 12:09:04;;;;;;;13.20;2.42;;;;;;;14.66;24.21;101828.49;1718392;82;21080;-36
2021/10/07 12:11:31;;;;;;;8.60;1.80;;;;;;;14.69;24.44;101821.06;1713934;82;21517;-36
2021/10/07 12:14:02;;;;;;;11.40;2.62;;;;;;;14.77;23.64;101819.35;1712154;82;21466;-36
2021/10/07 12:16:36;;;;;;;11.33;2.08;;;;;;;14.91;23.46;101811.12;1718750;82;20958;-36
2021/10/07 12:19:07;;;;;;;28.12;2.62;;;;;;;15.03;23.12;101816.46;1713875;82;21109;-36
2021/10/07 12:21:42;;;;;;;17.87;1.77;;;;;;;15.08;23.14;101813.86;1703925;82;21005;-37
2021/10/07 12:24:14;;;;;;;7.87;2.05;;;;;;;15.01;22.84;101809.40;1718786;82;21084;-37
2021/10/07 12:26:50;;;;;;;13.90;2.10;;;;;;;14.83;22.67;101818.95;1716432;82;21355;-37
2021/10/07 12:29:30;;;;;;;24.77;2.67;;;;;;;14.63;22.45;101808.73;1693280;83;21074;-37
2021/10/07 12:32:06;;;;;;;19.00;2.05;;;;;;;14.45;23.09;101815.15;1695307;83;21596;-37
2021/10/07 12:34:37;;;;;;;11.97;1.77;;;;;;;14.35;23.55;101811.55;1662466;85;21058;-31
2021/10/07 12:37:09;;;;;;;11.57;2.52;;;;;;;14.36;23.88;101812.87;1706573;83;21909;-31
2021/10/07 12:39:44;;;;;;;16.17;2.00;;;;;;;14.36;23.69;101813.30;1695745;83;21003;-36
2021/10/07 12:42:16;;;;;;;12.70;2.02;;;;;;;14.34;22.94;101808.03;1694666;83;20946;-36
2021/10/07 12:44:52;;;;;;;19.32;2.37;;;;;;;14.27;22.90;101800.08;1703955;83;21025;-36
2021/10/07 12:47:28;;;;;;;10.05;1.92;;;;;;;14.13;23.08;101806.95;1699601;83;21023;-36
2021/10/07 12:49:59;;;;;;;17.92;2.20;;;;;;;13.96;23.48;101808.98;1696449;83;21032;-36
2021/10/07 12:52:31;;;;;;;11.33;1.98;;;;;;;13.85;24.00;101811.94;1673905;85;21054;-36
2021/10/07 12:55:03;;;;;;;17.70;1.62;;;;;;;14.00;24.17;101819.13;1706880;83;21135;-36
2021/10/07 12:57:47;;;;;;;10.28;1.90;;;;;;;14.32;23.72;101810.19;1706308;83;21508;-36
2021/10/07 13:00:37;;;;;;;9.20;1.90;;;;;;;14.36;23.35;101806.28;1710263;82;21042;-36
2021/10/07 13:03:19;;;;;;;5.83;1.62;;;;;;;14.32;23.00;101809.78;1710791;83;21057;-31
2021/10/07 13:05:47;;;;;;;17.45;2.42;;;;;;;14.65;23.02;101803.03;1702375;84;20985;-32
2021/10/07 13:08:16;;;;;;;13.13;2.12;;;;;;;15.06;22.21;101801.09;1711458;83;21014;-32
2021/10/07 13:10:48;;;;;;;11.70;2.30;;;;;;;15.29;21.91;101800.77;1703117;83;21430;-31
2021/10/07 13:13:15;;;;;;;7.70;1.70;;;;;;;15.34;21.85;101804.74;1702801;84;21033;-32
2021/10/07 13:15:43;;;;;;;9.80;2.08;;;;;;;15.44;21.68;101802.59;1701738;84;21058;-32
2021/10/07 13:18:10;;;;;;;8.03;1.75;;;;;;;15.56;21.42;101806.59;1707031;83;21050;-31
2021/10/07 13:20:39;;;;;;;16.90;2.85;;;;;;;15.59;21.43;101797.79;1704029;84;21040;-32
2021/10/07 13:23:06;;;;;;;7.62;1.40;;;;;;;15.38;21.35;101794.22;1693162;83;21057;-32
2021/10/07 13:25:38;;;;;;;16.75;2.30;;;;;;;15.16;21.74;101789.28;1699553;84;21009;-31
2021/10/07 13:28:03;;;;;;;11.48;2.27;;;;;;;15.28;21.81;101797.69;1712508;83;21521;-32
2021/10/07 13:30:31;;;;;;;14.83;1.80;;;;;;;15.46;21.51;101796.88;1719803;83;21556;-32
2021/10/07 13:32:58;;;;;;;7.30;1.77;;;;;;;15.47;21.67;101793.80;1721059;82;21005;-31
2021/10/07 13:35:28;;;;;;;10.82;1.50;;;;;;;15.38;22.13;101800.81;1721419;83;21096;-32
2021/10/07 13:37:57;;;;;;;9.73;1.98;;;;;;;15.23;21.39;101793.27;1711301;82;21683;-31
2021/10/07 13:40:25;;;;;;;14.15;1.87;;;;;;;15.07;21.94;101802.84;1719657;83;21441;-31
2021/10/07 13:42:53;;;;;;;14.50;1.95;;;;;;;14.92;22.35;101801.02;1720087;83;21064;-32
2021/10/07 13:45:20;;;;;;;11.40;2.27;;;;;;;14.76;22.79;101797.41;1720694;83;21068;-32
2021/10/07 13:47:49;;;;;;;12.98;2.70;;;;;;;14.58;23.16;101804.74;1728710;83;21079;-32
2021/10/07 13:50:18;;;;;;;14.55;1.80;;;;;;;14.53;23.03;101800.31;1720752;82;21072;-32
2021/10/07 13:52:45;;;;;;;13.88;2.20;;;;;;;14.45;22.90;101810.77;1720090;83;21043;-32
2021/10/07 13:55:12;;;;;;;10.20;2.12;;;;;;;14.32;23.11;101804.52;1720637;83;21045;-31
2021/10/07 13:57:41;;;;;;;12.07;2.22;;;;;;;14.32;23.54;101803.61;1709744;83;21053;-32
2021/10/07 14:00:09;;;;;;;7.45;1.85;;;;;;;14.52;23.47;101811.72;1720775;82;21064;-31
2021/10/07 14:02:38;;;;;;;10.60;1.87;;;;;;;14.76;22.83;101814.97;1720500;82;21664;-32
2021/10/07 14:05:06;;;;;;;16.27;1.65;;;;;;;14.79;22.65;101820.27;1719379;83;21108;-32
2021/10/07 14:07:33;;;;;;;8.28;2.27;;;;;;;14.77;22.59;101818.04;1719797;82;21025;-36
2021/10/07 14:10:02;;;;;;;13.05;1.90;;;;;;;14.70;22.89;101818.88;1720754;82;21136;-32
2021/10/07 14:12:29;;;;;;;12.30;3.10;;;;;;;14.72;23.04;101817.13;1721049;82;21088;-32
2021/10/07 14:14:56;;;;;;;8.23;1.70;;;;;;;14.72;22.95;101813.17;1720954;82;21089;-32
2021/10/07 14:17:23;;;;;;;7.97;1.92;;;;;;;14.77;22.62;101813.65;1721017;82;21062;-32
2021/10/07 14:19:52;;;;;;;11.48;2.17;;;;;;;14.89;22.47;101816.36;1721117;83;21092;-33
2021/10/07 14:22:18;;;;;;;12.30;2.50;;;;;;;15.04;22.54;101811.62;1721188;82;20998;-33
2021/10/07 14:24:45;;;;;;;16.48;2.90;;;;;;;15.06;22.55;101814.27;1721114;83;21084;-36
2021/10/07 14:27:13;;;;;;;7.58;2.12;;;;;;;14.86;22.77;101818.99;1721384;82;21519;-37
2021/10/07 14:29:44;;;;;;;15.78;2.60;;;;;;;14.66;23.15;101813.13;1743255;82;21116;-32
2021/10/07 14:32:13;;;;;;;17.42;2.52;;;;;;;14.52;23.31;101815.67;1729764;82;20989;-33
2021/10/07 14:34:41;;;;;;;14.03;2.62;;;;;;;14.59;23.01;101813.09;1689996;85;21126;-32
2021/10/07 14:37:08;;;;;;;13.50;2.87;;;;;;;14.85;22.99;101816.36;1724460;83;20989;-37
2021/10/07 14:39:35;;;;;;;17.75;2.60;;;;;;;15.13;22.88;101821.33;1724224;83;21061;-32
2021/10/07 14:42:02;;;;;;;19.15;5.37;;;;;;;15.41;22.93;101823.22;1724579;83;21529;-37
2021/10/07 14:44:29;;;;;;;12.00;3.02;;;;;;;15.58;23.13;101815.81;1724143;82;21120;-37
2021/10/07 14:46:57;;;;;;;12.37;3.02;;;;;;;15.68;23.00;101817.21;1724549;83;21016;-32
2021/10/07 14:49:24;;;;;;;11.33;2.83;;;;;;;15.68;23.03;101825.56;1724842;83;21123;-37
2021/10/07 14:51:50;;;;;;;18.27;3.20;;;;;;;15.57;23.13;101822.85;1725099;83;21017;-34
2021/10/07 14:54:17;;;;;;;10.18;2.87;;;;;;;15.49;23.40;101832.51;1725023;83;21147;-33
2021/10/07 14:56:44;;;;;;;10.93;2.85;;;;;;;15.40;23.61;101821.91;1724971;82;21012;-37
2021/10/07 14:59:12;;;;;;;16.62;3.92;;;;;;;15.18;23.88;101829.70;1724815;83;21100;-37
2021/10/07 15:01:38;;;;;;;15.93;3.90;;;;;;;14.99;24.18;101834.44;1725232;83;21056;-33
2021/10/07 15:04:05;;;;;;;19.07;3.40;;;;;;;14.76;24.11;101831.65;1725021;82;21575;-33
2021/10/07 15:06:32;;;;;;;11.78;2.98;;;;;;;14.45;24.55;101837.09;1671592;83;21104;-32
2021/10/07 15:08:59;;;;;;;16.40;2.85;;;;;;;14.08;24.92;101829.27;1725212;83;21106;-33
2021/10/07 15:11:26;;;;;;;13.03;2.12;;;;;;;13.70;25.11;101834.14;1725405;83;21580;-38
2021/10/07 15:13:53;;;;;;;20.70;2.55;;;;;;;13.26;25.43;101837.97;1725191;83;21080;-36
2021/10/07 15:16:22;;;;;;;13.75;2.70;;;;;;;12.88;26.23;101845.30;1690197;85;21525;-36
2021/10/07 15:18:49;;;;;;;14.83;2.05;;;;;;;12.52;26.63;101849.52;1724967;83;21108;-31
2021/10/07 15:21:17;;;;;;;9.08;2.02;;;;;;;12.21;27.11;101844.18;1725197;83;21029;-32
